Main page
METAR-TAF:

METAR-TAF

Airports :

Cambridge Airport

Cambridge, England

latitude: 52-12N, longitude: 000-11E, elevation: 15 m

Current weather observation

The report was made 5 hours and 9 minutes ago, at 17:50 UTC
Wind 6 kt from the East
Temperature 5°C
Humidity 93%
Pressure 1001 hPa
Visibility: 6000 m
Overcast at a height of 400 ft

METAR: EGSC 211750Z 10006KT 6000 OVC004 05/04 Q1001

Time: 22:59 (22:59 UTC)

Forecast

The report was made 5 hours and 56 minutes ago, at 17:03 UTC
Forecast valid from 21 at 17 UTC to 21 at 19 UTC
Wind 7 kt from the East/Northeast
Visibility: 6000 m
Broken clouds at a height of 900 ft
Temporary
from 21 at 17 UTC to 21 at 19 UTC
Broken clouds at a height of 400 ft

TAF: EGSC 211703Z 2117/2119 07007KT 6000 BKN009 TEMPO 2117/2119 BKN004

Weather observations and forecasts of more than 4000 airports (METAR and TAF reports).

The available stations are represented by yellow and red dots on the map.

Hover mouse over dot to see the name of the station.

Then click to see weather observations and forecasts.

To change the map : click on the green buttons with a black cross to zoom in, on the green button with a dash to zoom out, or on the green arrows for adjacent maps.


METAR-TAF: